EmailTwitter


Observations de surface / France / LFPO (07149)

Régions: Québec | Canada | États-Unis | Europe | France | UK | Ailleurs
Station
Affichage
Infos & localisation pour LFPO (07149) | Aide pour décoder les METARs

Observations prises le 2020-02-19 à 15H30 UTC à PARIS/ORLY, FR (LFPO)

Etat du ciel: partiellement nuageux.

Obstacle(s) à la visibilité: faible pluie.

Température: 9.0 Celsius

Point de rosée: 5.0 Celsius

Humidité relative: 76%

Facteur vent: 6.

Vents: Sud-ouest à 19 km/h ou 10 noeuds.

Pression au niveau moyen de la mer: 102.50 kilopascals.

Visibilité horizontale: 4.97 milles terrestres ou 7.95 kilomètres.

Hauteur du plafond: 1219 mètres ( 4000 pieds ).

Observation METAR:

LFPO 191530Z 24010KT 8000 -RA FEW026 BKN040 09/05 Q1025 NOSIG=